sensor_id;sensor_type;location;lat;lon;timestamp;pressure;altitude;pressure_sealevel;temperature;humidity
26697;BME280;14312;52.614;13.496;2023-04-08T00:00:04;101437.22;;;9.10;60.85
26697;BME280;14312;52.614;13.496;2023-04-08T00:02:52;101429.84;;;9.12;60.68
26697;BME280;14312;52.614;13.496;2023-04-08T00:05:38;101428.22;;;9.11;60.48
26697;BME280;14312;52.614;13.496;2023-04-08T00:08:24;101431.91;;;9.10;61.01
26697;BME280;14312;52.614;13.496;2023-04-08T00:11:10;101437.22;;;9.10;60.93
26697;BME280;14312;52.614;13.496;2023-04-08T00:13:56;101431.09;;;9.09;60.57
26697;BME280;14312;52.614;13.496;2023-04-08T00:16:42;101431.91;;;9.10;60.65
26697;BME280;14312;52.614;13.496;2023-04-08T00:19:28;101434.78;;;9.08;60.58
26697;BME280;14312;52.614;13.496;2023-04-08T00:22:14;101433.97;;;9.08;61.21
26697;BME280;14312;52.614;13.496;2023-04-08T00:25:00;101439.28;;;9.08;61.20
26697;BME280;14312;52.614;13.496;2023-04-08T00:27:47;101446.25;;;9.09;61.08
26697;BME280;14312;52.614;13.496;2023-04-08T00:30:32;101446.25;;;9.09;61.30
26697;BME280;14312;52.614;13.496;2023-04-08T00:33:18;101446.25;;;9.09;60.79
26697;BME280;14312;52.614;13.496;2023-04-08T00:36:04;101451.56;;;9.09;61.42
26697;BME280;14312;52.614;13.496;2023-04-08T00:38:50;101435.00;;;9.07;60.96
26697;BME280;14312;52.614;13.496;2023-04-08T00:41:36;101437.22;;;9.10;61.00
26697;BME280;14312;52.614;13.496;2023-04-08T00:44:22;101438.03;;;9.10;61.08
26697;BME280;14312;52.614;13.496;2023-04-08T00:47:11;101428.22;;;9.11;61.46
26697;BME280;14312;52.614;13.496;2023-04-08T00:49:57;101425.56;;;9.11;61.16
26697;BME280;14312;52.614;13.496;2023-04-08T00:52:43;101426.56;;;9.10;61.41
26697;BME280;14312;52.614;13.496;2023-04-08T00:55:30;101437.22;;;9.10;60.86
26697;BME280;14312;52.614;13.496;2023-04-08T00:58:16;101433.97;;;9.08;60.95
26697;BME280;14312;52.614;13.496;2023-04-08T01:01:11;101434.38;;;9.04;61.45
26697;BME280;14312;52.614;13.496;2023-04-08T01:04:17;101439.50;;;9.06;62.26
26697;BME280;14312;52.614;13.496;2023-04-08T01:07:14;101439.69;;;9.04;61.46
26697;BME280;14312;52.614;13.496;2023-04-08T01:10:22;101442.97;;;9.07;63.13
26697;BME280;14312;52.614;13.496;2023-04-08T01:13:13;101434.16;;;9.06;61.35
26697;BME280;14312;52.614;13.496;2023-04-08T01:16:02;101451.75;;;9.07;61.57
26697;BME280;14312;52.614;13.496;2023-04-08T01:18:49;101458.47;;;9.10;61.80
26697;BME280;14312;52.614;13.496;2023-04-08T01:21:37;101453.16;;;9.10;61.71
26697;BME280;14312;52.614;13.496;2023-04-08T01:24:28;101456.44;;;9.12;62.25
26697;BME280;14312;52.614;13.496;2023-04-08T01:27:16;101452.97;;;9.11;61.56
26697;BME280;14312;52.614;13.496;2023-04-08T01:30:05;101447.44;;;9.13;61.87
26697;BME280;14312;52.614;13.496;2023-04-08T01:32:53;101459.72;;;9.14;61.72
26697;BME280;14312;52.614;13.496;2023-04-08T01:35:40;101454.38;;;9.14;61.54
26697;BME280;14312;52.614;13.496;2023-04-08T01:38:27;101457.66;;;9.16;61.44
26697;BME280;14312;52.614;13.496;2023-04-08T01:41:15;101453.38;;;9.15;61.64
26697;BME280;14312;52.614;13.496;2023-04-08T01:44:03;101458.06;;;9.13;61.52
26697;BME280;14312;52.614;13.496;2023-04-08T01:46:50;101454.38;;;9.14;61.69
26697;BME280;14312;52.614;13.496;2023-04-08T01:49:38;101455.41;;;9.13;61.77
26697;BME280;14312;52.614;13.496;2023-04-08T01:52:25;101444.16;;;9.11;61.58
26697;BME280;14312;52.614;13.496;2023-04-08T01:55:13;101449.47;;;9.11;61.82
26697;BME280;14312;52.614;13.496;2023-04-08T01:58:00;101460.13;;;9.11;62.06
26697;BME280;14312;52.614;13.496;2023-04-08T02:00:47;101451.31;;;9.10;61.98
26697;BME280;14312;52.614;13.496;2023-04-08T02:03:34;101440.47;;;9.12;61.88
26697;BME280;14312;52.614;13.496;2023-04-08T02:06:21;101455.63;;;9.11;61.75
26697;BME280;14312;52.614;13.496;2023-04-08T02:09:07;101462.56;;;9.12;61.77
26697;BME280;14312;52.614;13.496;2023-04-08T02:11:53;101466.25;;;9.11;61.98
26697;BME280;14312;52.614;13.496;2023-04-08T02:14:39;101477.69;;;9.12;61.87
26697;BME280;14312;52.614;13.496;2023-04-08T02:17:39;101480.56;;;9.10;62.83
26697;BME280;14312;52.614;13.496;2023-04-08T02:20:37;101474.03;;;9.13;62.50
26697;BME280;14312;52.614;13.496;2023-04-08T02:23:26;101470.75;;;9.11;62.15
26697;BME280;14312;52.614;13.496;2023-04-08T02:26:15;101476.06;;;9.11;61.79
26697;BME280;14312;52.614;13.496;2023-04-08T02:29:03;101469.13;;;9.10;61.67
26697;BME280;14312;52.614;13.496;2023-04-08T02:31:50;101479.75;;;9.10;62.02
26697;BME280;14312;52.614;13.496;2023-04-08T02:34:39;101479.75;;;9.10;61.91
26697;BME280;14312;52.614;13.496;2023-04-08T02:37:27;101475.69;;;9.07;62.06
26697;BME280;14312;52.614;13.496;2023-04-08T02:40:27;101475.47;;;9.09;62.48
26697;BME280;14312;52.614;13.496;2023-04-08T02:43:13;101481.81;;;9.08;61.82
26697;BME280;14312;52.614;13.496;2023-04-08T02:46:00;101486.13;;;9.09;62.22
26697;BME280;14312;52.614;13.496;2023-04-08T02:48:49;101486.31;;;9.07;62.42
26697;BME280;14312;52.614;13.496;2023-04-08T02:51:35;101489.78;;;9.08;62.33
26697;BME280;14312;52.614;13.496;2023-04-08T02:54:21;101499.41;;;9.09;62.20
26697;BME280;14312;52.614;13.496;2023-04-08T02:57:07;101487.72;;;9.10;62.30
26697;BME280;14312;52.614;13.496;2023-04-08T02:59:53;101489.78;;;9.08;62.14
26697;BME280;14312;52.614;13.496;2023-04-08T03:02:39;101486.13;;;9.09;62.19
26697;BME280;14312;52.614;13.496;2023-04-08T03:05:25;101494.09;;;9.09;61.91
26697;BME280;14312;52.614;13.496;2023-04-08T03:08:11;101495.69;;;9.10;61.91
26697;BME280;14312;52.614;13.496;2023-04-08T03:10:57;101495.69;;;9.10;62.23
26697;BME280;14312;52.614;13.496;2023-04-08T03:13:43;101503.91;;;9.08;62.32
26697;BME280;14312;52.614;13.496;2023-04-08T03:16:29;101497.34;;;9.11;62.41
26697;BME280;14312;52.614;13.496;2023-04-08T03:19:15;101505.31;;;9.11;62.44
26697;BME280;14312;52.614;13.496;2023-04-08T03:22:01;101506.94;;;9.12;62.49
26697;BME280;14312;52.614;13.496;2023-04-08T03:24:47;101502.66;;;9.11;62.48
26697;BME280;14312;52.614;13.496;2023-04-08T03:27:33;101506.75;;;9.13;62.37
26697;BME280;14312;52.614;13.496;2023-04-08T03:30:19;101507.56;;;9.14;62.63
26697;BME280;14312;52.614;13.496;2023-04-08T03:33:05;101512.88;;;9.14;62.58
26697;BME280;14312;52.614;13.496;2023-04-08T03:35:53;101515.53;;;9.14;62.45
26697;BME280;14312;52.614;13.496;2023-04-08T03:38:39;101517.19;;;9.15;62.59
26697;BME280;14312;52.614;13.496;2023-04-08T03:41:25;101515.34;;;9.15;62.84
26697;BME280;14312;52.614;13.496;2023-04-08T03:44:11;101507.13;;;9.17;62.80
26697;BME280;14312;52.614;13.496;2023-04-08T03:46:57;101512.44;;;9.17;62.34
26697;BME280;14312;52.614;13.496;2023-04-08T03:49:43;101514.09;;;9.18;62.46
26697;BME280;14312;52.614;13.496;2023-04-08T03:52:29;101513.28;;;9.17;62.55
26697;BME280;14312;52.614;13.496;2023-04-08T03:55:15;101520.44;;;9.17;62.52
26697;BME280;14312;52.614;13.496;2023-04-08T03:58:01;101530.03;;;9.18;62.57
26697;BME280;14312;52.614;13.496;2023-04-08T04:00:47;101529.22;;;9.17;62.42
26697;BME280;14312;52.614;13.496;2023-04-08T04:03:33;101527.19;;;9.19;62.69
26697;BME280;14312;52.614;13.496;2023-04-08T04:06:19;101540.69;;;9.18;62.55
26697;BME280;14312;52.614;13.496;2023-04-08T04:09:05;101535.97;;;9.20;62.59
26697;BME280;14312;52.614;13.496;2023-04-08T04:11:50;101540.69;;;9.18;62.72
26697;BME280;14312;52.614;13.496;2023-04-08T04:14:36;101552.94;;;9.19;62.82
26697;BME280;14312;52.614;13.496;2023-04-08T04:17:22;101548.44;;;9.19;62.48
26697;BME280;14312;52.614;13.496;2023-04-08T04:20:08;101549.28;;;9.20;62.77
26697;BME280;14312;52.614;13.496;2023-04-08T04:22:55;101551.94;;;9.20;62.45
26697;BME280;14312;52.614;13.496;2023-04-08T04:25:41;101552.13;;;9.18;62.60
26697;BME280;14312;52.614;13.496;2023-04-08T04:28:27;101547.63;;;9.19;62.57
26697;BME280;14312;52.614;13.496;2023-04-08T04:31:20;101551.13;;;9.19;63.10
26697;BME280;14312;52.614;13.496;2023-04-08T04:34:07;101555.81;;;9.17;62.52
26697;BME280;14312;52.614;13.496;2023-04-08T04:36:53;101563.78;;;9.17;62.89
26697;BME280;14312;52.614;13.496;2023-04-08T04:39:39;101566.44;;;9.17;62.38
26697;BME280;14312;52.614;13.496;2023-04-08T04:42:25;101565.63;;;9.17;62.75
26697;BME280;14312;52.614;13.496;2023-04-08T04:45:11;101565.63;;;9.17;62.59
26697;BME280;14312;52.614;13.496;2023-04-08T04:47:57;101571.75;;;9.17;62.79
26697;BME280;14312;52.614;13.496;2023-04-08T04:50:43;101574.66;;;9.16;62.86
26697;BME280;14312;52.614;13.496;2023-04-08T04:53:29;101586.13;;;9.16;62.69
26697;BME280;14312;52.614;13.496;2023-04-08T04:56:16;101585.28;;;9.16;62.70
26697;BME280;14312;52.614;13.496;2023-04-08T04:59:02;101598.34;;;9.17;62.81
26697;BME280;14312;52.614;13.496;2023-04-08T05:01:50;101596.50;;;9.18;62.98
26697;BME280;14312;52.614;13.496;2023-04-08T05:04:35;101590.19;;;9.19;62.92
26697;BME280;14312;52.614;13.496;2023-04-08T05:07:22;101593.66;;;9.19;63.08
26697;BME280;14312;52.614;13.496;2023-04-08T05:10:08;101600.00;;;9.18;62.94
26697;BME280;14312;52.614;13.496;2023-04-08T05:12:54;101598.78;;;9.21;62.97
26697;BME280;14312;52.614;13.496;2023-04-08T05:15:40;101596.72;;;9.23;62.91
26697;BME280;14312;52.614;13.496;2023-04-08T05:18:26;101603.66;;;9.24;62.87
26697;BME280;14312;52.614;13.496;2023-04-08T05:21:12;101594.66;;;9.25;63.08
26697;BME280;14312;52.614;13.496;2023-04-08T05:23:57;101606.94;;;9.26;63.06
26697;BME280;14312;52.614;13.496;2023-04-08T05:26:43;101619.22;;;9.27;63.19
26697;BME280;14312;52.614;13.496;2023-04-08T05:29:29;101611.84;;;9.29;63.15
26697;BME280;14312;52.614;13.496;2023-04-08T05:32:15;101613.50;;;9.30;63.15
26697;BME280;14312;52.614;13.496;2023-04-08T05:35:02;101607.75;;;9.33;63.14
26697;BME280;14312;52.614;13.496;2023-04-08T05:37:48;101624.53;;;9.33;63.12
26697;BME280;14312;52.614;13.496;2023-04-08T05:40:34;101628.63;;;9.36;63.17
26697;BME280;14312;52.614;13.496;2023-04-08T05:43:20;101628.63;;;9.36;63.27
26697;BME280;14312;52.614;13.496;2023-04-08T05:46:07;101635.16;;;9.40;63.19
26697;BME280;14312;52.614;13.496;2023-04-08T05:48:53;101636.78;;;9.41;63.23
26697;BME280;14312;52.614;13.496;2023-04-08T05:51:39;101643.75;;;9.42;63.25
26697;BME280;14312;52.614;13.496;2023-04-08T05:54:25;101657.25;;;9.47;63.50
26697;BME280;14312;52.614;13.496;2023-04-08T05:57:11;101654.19;;;9.50;63.39
26697;BME280;14312;52.614;13.496;2023-04-08T05:59:57;101652.94;;;9.53;63.66
26697;BME280;14312;52.614;13.496;2023-04-08T06:02:43;101640.44;;;9.53;63.38
26697;BME280;14312;52.614;13.496;2023-04-08T06:05:30;101641.06;;;9.55;63.18
26697;BME280;14312;52.614;13.496;2023-04-08T06:08:16;101650.25;;;9.59;63.08
26697;BME280;14312;52.614;13.496;2023-04-08T06:11:02;101653.53;;;9.61;63.13
26697;BME280;14312;52.614;13.496;2023-04-08T06:13:51;101660.50;;;9.62;63.33
26697;BME280;14312;52.614;13.496;2023-04-08T06:16:37;101644.53;;;9.62;63.19
26697;BME280;14312;52.614;13.496;2023-04-08T06:19:23;101655.16;;;9.62;63.23
26697;BME280;14312;52.614;13.496;2023-04-08T06:22:09;101653.94;;;9.65;63.52
26697;BME280;14312;52.614;13.496;2023-04-08T06:24:55;101651.06;;;9.66;63.42
26697;BME280;14312;52.614;13.496;2023-04-08T06:27:41;101652.28;;;9.70;63.01
26697;BME280;14312;52.614;13.496;2023-04-08T06:30:27;101662.50;;;9.73;63.23
26697;BME280;14312;52.614;13.496;2023-04-08T06:33:13;101665.38;;;9.78;63.48
26697;BME280;14312;52.614;13.496;2023-04-08T06:36:03;101659.22;;;9.85;63.62
26697;BME280;14312;52.614;13.496;2023-04-08T06:38:50;101667.81;;;9.87;63.22
26697;BME280;14312;52.614;13.496;2023-04-08T06:41:36;101671.06;;;9.89;63.28
26697;BME280;14312;52.614;13.496;2023-04-08T06:44:21;101685.59;;;9.93;63.42
26697;BME280;14312;52.614;13.496;2023-04-08T06:47:07;101684.16;;;9.97;63.45
26697;BME280;14312;52.614;13.496;2023-04-08T06:49:53;101689.06;;;10.00;63.38
26697;BME280;14312;52.614;13.496;2023-04-08T06:52:39;101694.78;;;10.03;63.62
26697;BME280;14312;52.614;13.496;2023-04-08T06:55:25;101689.84;;;10.07;63.25
26697;BME280;14312;52.614;13.496;2023-04-08T06:58:11;101700.06;;;10.10;63.40
26697;BME280;14312;52.614;13.496;2023-04-08T07:00:58;101705.59;;;10.15;63.43
26697;BME280;14312;52.614;13.496;2023-04-08T07:03:45;101704.19;;;10.19;63.57
26697;BME280;14312;52.614;13.496;2023-04-08T07:06:31;101712.97;;;10.26;63.41
26697;BME280;14312;52.614;13.496;2023-04-08T07:09:17;101715.78;;;10.31;63.37
26697;BME280;14312;52.614;13.496;2023-04-08T07:12:03;101718.88;;;10.35;63.26
26697;BME280;14312;52.614;13.496;2023-04-08T07:14:49;101719.25;;;10.38;63.45
26697;BME280;14312;52.614;13.496;2023-04-08T07:17:35;101727.44;;;10.43;63.37
26697;BME280;14312;52.614;13.496;2023-04-08T07:20:22;101724.97;;;10.48;63.40
26697;BME280;14312;52.614;13.496;2023-04-08T07:23:08;101727.78;;;10.53;63.46
26697;BME280;14312;52.614;13.496;2023-04-08T07:25:54;101739.69;;;10.57;63.57
26697;BME280;14312;52.614;13.496;2023-04-08T07:28:40;101737.19;;;10.63;63.40
26697;BME280;14312;52.614;13.496;2023-04-08T07:31:26;101734.69;;;10.68;63.67
26697;BME280;14312;52.614;13.496;2023-04-08T07:34:11;101745.31;;;10.74;63.53
26697;BME280;14312;52.614;13.496;2023-04-08T07:36:57;101742.03;;;10.79;63.30
26697;BME280;14312;52.614;13.496;2023-04-08T07:39:44;101744.03;;;10.83;63.23
26697;BME280;14312;52.614;13.496;2023-04-08T07:42:30;101749.78;;;10.87;63.17
26697;BME280;14312;52.614;13.496;2023-04-08T07:45:16;101748.91;;;10.93;63.47
26697;BME280;14312;52.614;13.496;2023-04-08T07:48:02;101744.56;;;10.98;63.59
26697;BME280;14312;52.614;13.496;2023-04-08T07:50:48;101748.84;;;11.06;63.74
26697;BME280;14312;52.614;13.496;2023-04-08T07:53:34;101752.28;;;11.13;63.02
26697;BME280;14312;52.614;13.496;2023-04-08T07:56:20;101763.09;;;11.18;63.16
26697;BME280;14312;52.614;13.496;2023-04-08T07:59:06;101757.34;;;11.21;63.13
26697;BME280;14312;52.614;13.496;2023-04-08T08:01:53;101750.53;;;11.25;63.38
26697;BME280;14312;52.614;13.496;2023-04-08T08:04:39;101757.25;;;11.34;63.28
26697;BME280;14312;52.614;13.496;2023-04-08T08:07:25;101763.34;;;11.42;63.29
26697;BME280;14312;52.614;13.496;2023-04-08T08:10:11;101764.13;;;11.49;63.20
26697;BME280;14312;52.614;13.496;2023-04-08T08:12:56;101764.06;;;11.55;63.10
26697;BME280;14312;52.614;13.496;2023-04-08T08:15:42;101766.66;;;11.62;62.99
26697;BME280;14312;52.614;13.496;2023-04-08T08:18:28;101766.25;;;11.65;62.95
26697;BME280;14312;52.614;13.496;2023-04-08T08:21:14;101772.56;;;11.70;62.89
26697;BME280;14312;52.614;13.496;2023-04-08T08:24:00;101775.41;;;11.75;62.94
26697;BME280;14312;52.614;13.496;2023-04-08T08:26:46;101774.75;;;11.80;62.93
26697;BME280;14312;52.614;13.496;2023-04-08T08:29:35;101776.09;;;11.89;63.20
26697;BME280;14312;52.614;13.496;2023-04-08T08:32:21;101777.44;;;11.98;63.31
26697;BME280;14312;52.614;13.496;2023-04-08T08:35:07;101782.06;;;12.09;63.32
26697;BME280;14312;52.614;13.496;2023-04-08T08:37:53;101778.66;;;12.21;63.08
26697;BME280;14312;52.614;13.496;2023-04-08T08:40:39;101784.28;;;12.31;62.99
26697;BME280;14312;52.614;13.496;2023-04-08T08:43:26;101789.94;;;12.41;62.82
26697;BME280;14312;52.614;13.496;2023-04-08T08:46:15;101782.66;;;12.48;62.55
26697;BME280;14312;52.614;13.496;2023-04-08T08:49:01;101783.63;;;12.53;62.43
26697;BME280;14312;52.614;13.496;2023-04-08T08:51:47;101789.91;;;12.59;62.14
26697;BME280;14312;52.614;13.496;2023-04-08T08:54:35;101792.16;;;12.62;62.09
26697;BME280;14312;52.614;13.496;2023-04-08T08:57:21;101788.44;;;12.63;62.01
26697;BME280;14312;52.614;13.496;2023-04-08T09:00:07;101799.16;;;12.63;61.71
26697;BME280;14312;52.614;13.496;2023-04-08T09:02:53;101795.88;;;12.61;62.00
26697;BME280;14312;52.614;13.496;2023-04-08T09:05:50;101801.22;;;12.61;62.31
26697;BME280;14312;52.614;13.496;2023-04-08T09:08:37;101801.44;;;12.60;62.14
26697;BME280;14312;52.614;13.496;2023-04-08T09:11:22;101810.28;;;12.60;61.84
26697;BME280;14312;52.614;13.496;2023-04-08T09:14:23;101815.19;;;12.63;62.32
26697;BME280;14312;52.614;13.496;2023-04-08T09:17:09;101806.13;;;12.64;62.06
26697;BME280;14312;52.614;13.496;2023-04-08T09:20:07;101819.16;;;12.72;62.33
26697;BME280;14312;52.614;13.496;2023-04-08T09:22:58;101819.56;;;12.76;62.31
26697;BME280;14312;52.614;13.496;2023-04-08T09:25:44;101820.28;;;12.83;62.51
26697;BME280;14312;52.614;13.496;2023-04-08T09:28:30;101825.09;;;12.92;62.46
26697;BME280;14312;52.614;13.496;2023-04-08T09:31:21;101821.66;;;13.04;62.29
26697;BME280;14312;52.614;13.496;2023-04-08T09:34:14;101832.19;;;13.17;62.57
26697;BME280;14312;52.614;13.496;2023-04-08T09:37:07;101834.69;;;13.30;62.48
26697;BME280;14312;52.614;13.496;2023-04-08T09:39:53;101833.44;;;13.44;62.47
26697;BME280;14312;52.614;13.496;2023-04-08T09:42:43;101834.41;;;13.61;62.52
26697;BME280;14312;52.614;13.496;2023-04-08T09:45:32;101828.84;;;13.75;61.86
26697;BME280;14312;52.614;13.496;2023-04-08T09:48:23;101834.22;;;13.86;61.67
26697;BME280;14312;52.614;13.496;2023-04-08T09:51:15;101825.59;;;13.96;61.73
26697;BME280;14312;52.614;13.496;2023-04-08T09:54:02;101834.94;;;14.05;61.17
26697;BME280;14312;52.614;13.496;2023-04-08T09:57:00;101834.00;;;14.11;60.93
26697;BME280;14312;52.614;13.496;2023-04-08T10:00:03;101836.78;;;14.16;60.61
26697;BME280;14312;52.614;13.496;2023-04-08T10:03:08;101836.78;;;14.16;60.16
26697;BME280;14312;52.614;13.496;2023-04-08T10:05:55;101834.81;;;14.11;59.99
26697;BME280;14312;52.614;13.496;2023-04-08T10:08:43;101834.00;;;14.11;61.15
26697;BME280;14312;52.614;13.496;2023-04-08T10:11:29;101840.75;;;14.25;62.30
26697;BME280;14312;52.614;13.496;2023-04-08T10:14:15;101827.69;;;14.52;62.85
26697;BME280;14312;52.614;13.496;2023-04-08T10:17:23;101824.97;;;14.92;62.14
26697;BME280;14312;52.614;13.496;2023-04-08T10:23:55;101835.59;;;15.55;59.87
26697;BME280;14312;52.614;13.496;2023-04-08T10:26:43;101832.81;;;15.67;59.60
26697;BME280;14312;52.614;13.496;2023-04-08T10:29:30;101828.09;;;15.74;59.57
26697;BME280;14312;52.614;13.496;2023-04-08T10:32:28;101832.47;;;15.80;58.63
26697;BME280;14312;52.614;13.496;2023-04-08T10:35:14;101830.38;;;15.82;58.71
26697;BME280;14312;52.614;13.496;2023-04-08T10:38:01;101838.75;;;15.86;58.39
26697;BME280;14312;52.614;13.496;2023-04-08T10:40:48;101838.50;;;15.87;58.39
26697;BME280;14312;52.614;13.496;2023-04-08T10:43:35;101830.19;;;15.89;58.80
26697;BME280;14312;52.614;13.496;2023-04-08T10:46:21;101830.59;;;15.97;58.57
26697;BME280;14312;52.614;13.496;2023-04-08T10:49:07;101831.78;;;16.06;58.77
26697;BME280;14312;52.614;13.496;2023-04-08T10:51:53;101830.09;;;16.17;58.59
26697;BME280;14312;52.614;13.496;2023-04-08T10:54:45;101830.78;;;16.29;58.00
26697;BME280;14312;52.614;13.496;2023-04-08T10:57:31;101828.47;;;16.38;58.06
26697;BME280;14312;52.614;13.496;2023-04-08T11:00:18;101829.41;;;16.49;57.94
26697;BME280;14312;52.614;13.496;2023-04-08T11:03:06;101830.84;;;16.56;57.53
26697;BME280;14312;52.614;13.496;2023-04-08T11:05:52;101823.34;;;16.58;56.84
26697;BME280;14312;52.614;13.496;2023-04-08T11:08:38;101822.25;;;16.54;56.55
26697;BME280;14312;52.614;13.496;2023-04-08T11:11:24;101828.09;;;16.51;56.73
26697;BME280;14312;52.614;13.496;2023-04-08T11:14:15;101825.41;;;16.51;57.11
26697;BME280;14312;52.614;13.496;2023-04-08T11:17:04;101833.00;;;16.54;56.92
26697;BME280;14312;52.614;13.496;2023-04-08T11:19:51;101836.56;;;16.60;57.19
26697;BME280;14312;52.614;13.496;2023-04-08T11:22:38;101840.50;;;16.69;57.89
26697;BME280;14312;52.614;13.496;2023-04-08T11:25:24;101831.25;;;16.87;57.88
26697;BME280;14312;52.614;13.496;2023-04-08T11:28:11;101833.09;;;17.08;57.61
26697;BME280;14312;52.614;13.496;2023-04-08T11:30:58;101832.78;;;17.26;57.28
26697;BME280;14312;52.614;13.496;2023-04-08T11:33:45;101826.44;;;17.42;56.69
26697;BME280;14312;52.614;13.496;2023-04-08T11:36:33;101837.91;;;17.59;57.31
26697;BME280;14312;52.614;13.496;2023-04-08T11:39:22;101831.63;;;17.81;56.87
26697;BME280;14312;52.614;13.496;2023-04-08T11:42:08;101831.22;;;17.99;55.83
26697;BME280;14312;52.614;13.496;2023-04-08T11:44:55;101837.75;;;18.08;55.11
26697;BME280;14312;52.614;13.496;2023-04-08T11:47:42;101838.81;;;18.07;54.63
26697;BME280;14312;52.614;13.496;2023-04-08T11:50:28;101841.47;;;17.97;54.25
26697;BME280;14312;52.614;13.496;2023-04-08T11:53:19;101834.38;;;17.86;53.93
26697;BME280;14312;52.614;13.496;2023-04-08T11:56:18;101834.81;;;17.73;53.63
26697;BME280;14312;52.614;13.496;2023-04-08T11:59:04;101834.41;;;17.59;54.52
26697;BME280;14312;52.614;13.496;2023-04-08T12:01:51;101830.25;;;17.46;54.14
26697;BME280;14312;52.614;13.496;2023-04-08T12:04:37;101830.16;;;17.36;54.10
26697;BME280;14312;52.614;13.496;2023-04-08T12:07:24;101832.78;;;17.26;54.35
26697;BME280;14312;52.614;13.496;2023-04-08T12:10:10;101826.69;;;17.14;54.28
26697;BME280;14312;52.614;13.496;2023-04-08T12:12:56;101826.63;;;17.04;54.47
26697;BME280;14312;52.614;13.496;2023-04-08T12:15:43;101828.69;;;16.97;54.71
26697;BME280;14312;52.614;13.496;2023-04-08T12:18:29;101837.78;;;16.91;55.00
26697;BME280;14312;52.614;13.496;2023-04-08T12:21:15;101833.72;;;16.88;55.06
26697;BME280;14312;52.614;13.496;2023-04-08T12:24:01;101828.56;;;16.87;55.22
26697;BME280;14312;52.614;13.496;2023-04-08T12:26:47;101826.44;;;16.89;55.30
26697;BME280;14312;52.614;13.496;2023-04-08T12:29:33;101830.25;;;16.93;55.04
26697;BME280;14312;52.614;13.496;2023-04-08T12:32:19;101833.00;;;16.98;55.22
26697;BME280;14312;52.614;13.496;2023-04-08T12:35:06;101832.81;;;17.04;55.70
26697;BME280;14312;52.614;13.496;2023-04-08T12:37:52;101834.78;;;17.14;55.08
26697;BME280;14312;52.614;13.496;2023-04-08T12:40:38;101828.94;;;17.22;55.14
26697;BME280;14312;52.614;13.496;2023-04-08T12:43:24;101838.19;;;17.31;54.61
26697;BME280;14312;52.614;13.496;2023-04-08T12:46:11;101836.66;;;17.40;54.53
26697;BME280;14312;52.614;13.496;2023-04-08T12:48:57;101816.78;;;17.46;55.13
26697;BME280;14312;52.614;13.496;2023-04-08T12:51:43;101824.00;;;17.68;55.67
26697;BME280;14312;52.614;13.496;2023-04-08T12:54:30;101822.88;;;18.00;55.08
26697;BME280;14312;52.614;13.496;2023-04-08T12:57:17;101827.91;;;18.29;54.47
26697;BME280;14312;52.614;13.496;2023-04-08T13:00:03;101819.69;;;18.56;54.35
26697;BME280;14312;52.614;13.496;2023-04-08T13:02:49;101812.22;;;18.83;54.08
26697;BME280;14312;52.614;13.496;2023-04-08T13:05:35;101811.75;;;19.16;54.02
26697;BME280;14312;52.614;13.496;2023-04-08T13:08:21;101812.06;;;19.55;54.09
26697;BME280;14312;52.614;13.496;2023-04-08T13:11:07;101807.41;;;20.07;53.69
26697;BME280;14312;52.614;13.496;2023-04-08T13:13:53;101811.59;;;20.58;53.06
26697;BME280;14312;52.614;13.496;2023-04-08T13:16:39;101798.38;;;21.01;52.33
26697;BME280;14312;52.614;13.496;2023-04-08T13:19:25;101796.53;;;21.35;50.72
26697;BME280;14312;52.614;13.496;2023-04-08T13:22:11;101799.88;;;21.56;49.74
26697;BME280;14312;52.614;13.496;2023-04-08T13:24:58;101790.31;;;21.64;49.15
26697;BME280;14312;52.614;13.496;2023-04-08T13:27:44;101798.97;;;21.66;48.58
26697;BME280;14312;52.614;13.496;2023-04-08T13:30:30;101789.75;;;21.67;48.47
26697;BME280;14312;52.614;13.496;2023-04-08T13:33:16;101798.88;;;21.76;48.41
26697;BME280;14312;52.614;13.496;2023-04-08T13:36:02;101784.34;;;21.91;48.49
26697;BME280;14312;52.614;13.496;2023-04-08T13:38:48;101787.63;;;22.16;48.40
26697;BME280;14312;52.614;13.496;2023-04-08T13:41:35;101782.84;;;22.51;48.36
26697;BME280;14312;52.614;13.496;2023-04-08T13:44:21;101788.31;;;22.88;47.94
26697;BME280;14312;52.614;13.496;2023-04-08T13:47:07;101784.47;;;23.27;47.18
26697;BME280;14312;52.614;13.496;2023-04-08T13:49:53;101776.75;;;23.66;46.73
26697;BME280;14312;52.614;13.496;2023-04-08T13:52:39;101787.19;;;24.05;41.78
26697;BME280;14312;52.614;13.496;2023-04-08T13:55:25;101787.91;;;24.38;43.23
26697;BME280;14312;52.614;13.496;2023-04-08T13:58:11;101785.03;;;24.71;43.39
26697;BME280;14312;52.614;13.496;2023-04-08T14:00:57;101788.44;;;24.90;42.75
26697;BME280;14312;52.614;13.496;2023-04-08T14:03:43;101784.81;;;24.81;41.67
26697;BME280;14312;52.614;13.496;2023-04-08T14:06:29;101783.38;;;24.47;41.58
26697;BME280;14312;52.614;13.496;2023-04-08T14:09:16;101787.50;;;24.04;41.83
26697;BME280;14312;52.614;13.496;2023-04-08T14:12:02;101782.03;;;23.76;42.07
26697;BME280;14312;52.614;13.496;2023-04-08T14:14:48;101775.56;;;23.72;42.47
26697;BME280;14312;52.614;13.496;2023-04-08T14:17:34;101773.16;;;23.85;43.00
26697;BME280;14312;52.614;13.496;2023-04-08T14:20:21;101772.78;;;24.05;42.94
26697;BME280;14312;52.614;13.496;2023-04-08T14:23:06;101772.78;;;24.32;42.28
26697;BME280;14312;52.614;13.496;2023-04-08T14:25:52;101772.13;;;24.63;42.29
26697;BME280;14312;52.614;13.496;2023-04-08T14:28:38;101768.75;;;24.93;41.87
26697;BME280;14312;52.614;13.496;2023-04-08T14:31:24;101766.50;;;25.17;41.24